Прогноз погоды TAF Белгород

Прогноз погоды TAF: 
TAF UUOB 280200Z 2803/2812 17003MPS 0300 FG VV001 TEMPO 2803/2807 1200 BR OVC004 BECMG 2807/2808 3000 BR BKN008
Аэропорт подробнее: 
Регион: